Time;durP1;ratioP1;P1;durP2;ratioP2;P2;SDS_P1;SDS_P2;PMS_P1;PMS_P2;Temp;Humidity;BMP_temperature;BMP_pressure;BME280_temperature;BME280_humidity;BME280_pressure;Samples;Min_cycle;Max_cycle;Signal;HPM_P1;HPM_P2
2022/06/27 00:02:00;;;;;;;2.17;0.60;;;14.80;99.90;;;;;;5093110;28;20175;-67
2022/06/27 00:04:27;;;;;;;1.30;0.60;;;14.70;99.90;;;;;;5093058;28;20198;-65
2022/06/27 00:06:55;;;;;;;0.87;0.47;;;15.10;99.90;;;;;;5093100;28;20633;-66
2022/06/27 00:09:23;;;;;;;1.20;0.60;;;15.40;99.90;;;;;;5093116;28;20167;-66
2022/06/27 00:11:51;;;;;;;5.23;0.60;;;15.20;99.90;;;;;;5092945;28;20184;-66
2022/06/27 00:14:18;;;;;;;2.13;0.50;;;15.20;99.90;;;;;;5093117;28;20228;-67
2022/06/27 00:16:46;;;;;;;1.07;0.70;;;15.30;99.90;;;;;;5092956;28;20177;-66
2022/06/27 00:19:14;;;;;;;5.70;0.83;;;15.10;99.90;;;;;;5093232;28;20189;-66
2022/06/27 00:21:41;;;;;;;3.10;0.77;;;15.20;99.90;;;;;;5092958;28;20163;-66
2022/06/27 00:24:09;;;;;;;1.23;0.77;;;15.60;99.90;;;;;;5092849;28;20182;-65
2022/06/27 00:26:37;;;;;;;2.80;0.73;;;15.50;99.90;;;;;;5092885;28;20227;-66
2022/06/27 00:29:05;;;;;;;1.33;0.80;;;15.90;99.90;;;;;;5092932;28;20610;-65
2022/06/27 00:31:32;;;;;;;1.20;0.50;;;15.90;99.90;;;;;;5093163;28;20190;-65
2022/06/27 00:34:00;;;;;;;2.73;0.60;;;15.80;99.90;;;;;;5093097;28;20201;-65
2022/06/27 00:36:28;;;;;;;1.90;0.60;;;16.00;99.90;;;;;;5093013;28;20178;-66
2022/06/27 00:38:56;;;;;;;1.10;0.60;;;16.20;99.90;;;;;;5092576;28;20727;-66
2022/06/27 00:41:23;;;;;;;1.07;0.40;;;16.00;99.90;;;;;;5092772;28;20576;-66
2022/06/27 00:43:51;;;;;;;1.53;0.70;;;15.90;99.90;;;;;;5092829;28;20262;-66
2022/06/27 00:46:19;;;;;;;1.80;0.60;;;16.40;99.90;;;;;;5092815;28;20238;-66
2022/06/27 00:48:46;;;;;;;5.50;0.80;;;16.00;99.90;;;;;;5092777;28;20570;-66
2022/06/27 00:51:14;;;;;;;1.03;0.63;;;16.00;99.90;;;;;;5092732;28;20655;-66
2022/06/27 00:53:42;;;;;;;1.90;0.90;;;16.50;99.90;;;;;;5092609;28;20171;-66
2022/06/27 00:56:10;;;;;;;1.93;0.60;;;16.40;99.90;;;;;;5092644;28;20637;-66
2022/06/27 00:58:38;;;;;;;1.70;0.80;;;16.40;99.90;;;;;;5092536;28;20179;-65
2022/06/27 01:01:05;;;;;;;0.97;0.73;;;16.50;99.90;;;;;;5092591;28;20647;-64
2022/06/27 01:03:33;;;;;;;2.13;1.73;;;16.70;99.90;;;;;;5092701;28;20175;-65
2022/06/27 01:06:02;;;;;;;1.03;0.63;;;16.70;99.90;;;;;;5092413;28;20291;-65
2022/06/27 01:08:30;;;;;;;1.50;0.67;;;17.00;99.90;;;;;;5092470;28;20167;-65
2022/06/27 01:10:58;;;;;;;1.30;0.60;;;16.60;99.90;;;;;;5096175;28;20717;-65
2022/06/27 01:13:25;;;;;;;1.23;0.70;;;16.70;99.90;;;;;;5096597;28;20167;-65
2022/06/27 01:15:54;;;;;;;1.00;0.63;;;16.80;99.90;;;;;;5096285;28;20276;-66
2022/06/27 01:18:22;;;;;;;5.10;0.90;;;16.90;99.90;;;;;;5095869;28;20202;-66
2022/06/27 01:20:49;;;;;;;1.37;1.00;;;17.00;99.90;;;;;;5077775;28;20589;-66
2022/06/27 01:23:17;;;;;;;2.20;0.80;;;17.00;99.90;;;;;;5095940;28;20289;-66
2022/06/27 01:25:45;;;;;;;2.17;0.67;;;17.40;99.90;;;;;;5095815;28;20215;-66
2022/06/27 01:28:13;;;;;;;1.63;0.63;;;17.10;99.90;;;;;;5095696;28;20227;-66
2022/06/27 01:30:40;;;;;;;0.90;0.60;;;17.30;99.90;;;;;;5095829;28;20203;-67
2022/06/27 01:33:08;;;;;;;3.17;0.80;;;17.70;99.90;;;;;;5095814;28;20254;-67
2022/06/27 01:35:36;;;;;;;2.47;0.70;;;17.80;99.90;;;;;;5095753;28;20175;-67
2022/06/27 01:38:04;;;;;;;2.10;0.87;;;17.90;99.90;;;;;;5095586;28;20188;-66
2022/06/27 01:40:32;;;;;;;2.50;0.70;;;17.80;99.90;;;;;;5095783;28;20650;-66
2022/06/27 01:43:00;;;;;;;1.30;0.70;;;17.80;99.90;;;;;;5095736;28;20189;-66
2022/06/27 01:45:32;;;;;;;2.70;0.70;;;17.90;99.90;;;;;;5095458;28;20275;-66
2022/06/27 01:48:00;;;;;;;2.20;0.70;;;17.10;99.90;;;;;;5095960;28;20175;-66
2022/06/27 01:50:31;;;;;;;3.13;0.70;;;17.60;99.90;;;;;;5095575;28;20173;-67
2022/06/27 01:53:01;;;;;;;2.07;0.70;;;18.50;99.90;;;;;;5095537;28;20172;-67
2022/06/27 01:55:29;;;;;;;1.30;0.50;;;18.40;99.90;;;;;;5095556;28;20175;-66
2022/06/27 01:57:58;;;;;;;1.40;0.60;;;18.80;99.90;;;;;;5095141;28;20180;-66
2022/06/27 02:00:25;;;;;;;0.70;0.53;;;19.10;99.90;;;;;;5095238;28;20543;-66
2022/06/27 02:02:53;;;;;;;0.97;0.70;;;18.50;99.90;;;;;;5095649;28;20175;-66
2022/06/27 02:05:21;;;;;;;0.93;0.60;;;17.50;99.90;;;;;;5094995;28;20235;-66
2022/06/27 02:07:51;;;;;;;4.27;0.60;;;16.90;99.90;;;;;;5095308;28;20175;-66
2022/06/27 02:10:19;;;;;;;1.23;0.63;;;16.30;99.90;;;;;;5076862;28;20327;-66
2022/06/27 02:12:47;;;;;;;3.20;0.70;;;16.10;99.90;;;;;;5095148;28;20179;-67
2022/06/27 02:15:14;;;;;;;2.13;0.70;;;16.40;99.90;;;;;;5094986;28;20175;-67
2022/06/27 02:17:42;;;;;;;2.03;0.70;;;16.90;99.90;;;;;;5076634;28;20548;-67
2022/06/27 02:20:10;;;;;;;2.60;0.90;;;17.50;99.90;;;;;;5094652;28;20615;-67
2022/06/27 02:22:38;;;;;;;2.27;1.27;;;17.50;99.90;;;;;;5094671;28;20178;-67
2022/06/27 02:25:06;;;;;;;2.60;0.83;;;18.00;99.90;;;;;;5094816;28;20276;-67
2022/06/27 02:27:35;;;;;;;1.83;0.90;;;18.30;99.90;;;;;;5094589;28;20672;-67
2022/06/27 02:30:04;;;;;;;3.13;0.93;;;18.70;99.90;;;;;;5094866;28;20179;-65
2022/06/27 02:32:32;;;;;;;3.50;1.30;;;18.70;99.90;;;;;;5094841;28;20171;-65
2022/06/27 02:35:00;;;;;;;3.43;1.00;;;18.80;99.90;;;;;;5094864;28;20539;-66
2022/06/27 02:37:28;;;;;;;4.03;1.33;;;18.80;99.90;;;;;;5094343;28;20171;-66
2022/06/27 02:39:56;;;;;;;4.40;1.07;;;19.00;99.90;;;;;;5094681;28;20177;-67
2022/06/27 02:42:27;;;;;;;5.43;0.83;;;18.80;99.90;;;;;;5092879;28;20171;-66
2022/06/27 02:44:55;;;;;;;0.97;0.60;;;19.00;99.90;;;;;;5093705;28;21984;-66
2022/06/27 02:47:24;;;;;;;4.17;0.80;;;18.70;99.90;;;;;;5075338;28;20186;-66
2022/06/27 02:49:52;;;;;;;0.77;0.60;;;18.80;99.90;;;;;;5094577;28;20587;-67
2022/06/27 02:52:23;;;;;;;4.03;0.80;;;18.00;99.90;;;;;;5094204;28;20211;-67
2022/06/27 02:55:15;;;;;;;2.90;1.00;;;17.10;99.90;;;;;;5094388;28;20186;-67
2022/06/27 02:58:20;;;;;;;1.47;0.70;;;17.00;99.90;;;;;;5093854;28;20186;-65
2022/06/27 03:00:49;;;;;;;1.83;0.80;;;16.90;99.90;;;;;;5094232;28;20185;-66
2022/06/27 03:03:18;;;;;;;2.70;1.00;;;16.40;99.90;;;;;;5093978;28;20683;-66
2022/06/27 03:05:56;;;;;;;2.90;0.97;;;16.80;99.90;;;;;;5093939;28;20211;-66
2022/06/27 03:08:23;;;;;;;1.23;0.70;;;16.40;99.90;;;;;;5091732;28;20593;-65
2022/06/27 03:10:51;;;;;;;6.67;0.90;;;16.10;99.90;;;;;;5084968;28;20203;-64
2022/06/27 03:13:19;;;;;;;1.63;1.20;;;15.80;99.90;;;;;;5088734;28;20180;-64
2022/06/27 03:15:47;;;;;;;4.10;1.10;;;15.60;99.90;;;;;;5092831;28;20213;-65
2022/06/27 03:18:15;;;;;;;9.30;1.60;;;15.60;99.90;;;;;;5091386;28;20175;-65
2022/06/27 03:20:43;;;;;;;9.00;1.30;;;15.50;99.90;;;;;;5090391;28;20605;-65
2022/06/27 03:23:12;;;;;;;7.20;1.33;;;15.50;99.90;;;;;;5085822;28;20187;-65
2022/06/27 03:25:40;;;;;;;2.03;1.00;;;15.80;99.90;;;;;;5092438;28;20671;-65
2022/06/27 03:28:08;;;;;;;3.13;1.13;;;15.90;99.90;;;;;;5091950;28;20687;-65
2022/06/27 03:30:35;;;;;;;2.50;1.00;;;16.10;99.90;;;;;;5092198;28;20228;-65
2022/06/27 03:33:04;;;;;;;1.97;1.00;;;16.10;99.90;;;;;;5091804;28;20676;-64
2022/06/27 03:35:31;;;;;;;1.90;0.80;;;16.00;99.90;;;;;;5092268;28;20175;-66
2022/06/27 03:37:59;;;;;;;2.53;1.23;;;16.00;99.90;;;;;;5092195;28;20186;-65
2022/06/27 03:40:27;;;;;;;2.00;0.90;;;15.90;99.90;;;;;;5092248;28;20186;-66
2022/06/27 03:42:55;;;;;;;3.03;0.80;;;15.70;99.90;;;;;;5091458;28;20187;-64
2022/06/27 03:45:22;;;;;;;2.57;1.20;;;15.70;99.90;;;;;;5092157;28;20229;-65
2022/06/27 03:47:57;;;;;;;2.03;0.83;;;15.60;99.90;;;;;;5091954;28;20335;-65
2022/06/27 03:50:26;;;;;;;1.70;0.93;;;15.50;99.90;;;;;;5092055;28;20552;-64
2022/06/27 03:52:55;;;;;;;2.50;0.80;;;15.60;99.90;;;;;;5091357;28;20183;-64
2022/06/27 03:55:24;;;;;;;2.70;0.90;;;15.60;99.90;;;;;;5091959;28;20183;-64
2022/06/27 03:57:56;;;;;;;2.17;0.70;;;15.60;99.90;;;;;;5091764;28;20230;-64
2022/06/27 04:00:29;;;;;;;1.27;0.70;;;15.60;99.90;;;;;;5073829;28;20189;-65
2022/06/27 04:03:00;;;;;;;1.27;0.60;;;15.60;99.90;;;;;;5091527;28;20182;-65
2022/06/27 04:05:28;;;;;;;3.77;1.10;;;15.60;99.90;;;;;;5090756;28;20219;-64
2022/06/27 04:07:55;;;;;;;2.70;1.00;;;15.60;99.90;;;;;;5091618;28;20186;-64
2022/06/27 04:10:23;;;;;;;1.90;0.80;;;15.70;99.90;;;;;;5091905;28;20176;-65
2022/06/27 04:12:51;;;;;;;2.10;0.83;;;15.70;99.90;;;;;;5091327;28;20179;-64
2022/06/27 04:15:18;;;;;;;2.07;1.10;;;15.80;99.90;;;;;;5091932;28;20239;-64
2022/06/27 04:17:46;;;;;;;1.50;1.00;;;15.80;99.90;;;;;;5091698;28;20179;-65
2022/06/27 04:20:14;;;;;;;1.63;0.87;;;15.70;99.90;;;;;;5073716;28;20179;-65
2022/06/27 04:22:41;;;;;;;4.00;1.23;;;15.50;99.90;;;;;;5091910;28;20174;-65
2022/06/27 04:25:09;;;;;;;1.37;1.00;;;15.30;99.90;;;;;;5091504;28;20213;-65
2022/06/27 04:27:37;;;;;;;1.37;1.10;;;15.10;99.90;;;;;;5090904;28;20219;-65
2022/06/27 04:30:06;;;;;;;1.03;0.97;;;15.10;99.90;;;;;;5091358;28;20187;-65
2022/06/27 04:32:34;;;;;;;2.53;0.90;;;14.90;99.90;;;;;;5091712;28;20168;-65
2022/06/27 04:35:02;;;;;;;1.37;0.97;;;14.90;99.90;;;;;;5091348;28;20177;-65
2022/06/27 04:37:31;;;;;;;1.70;1.00;;;14.80;99.90;;;;;;5090662;28;20645;-64
2022/06/27 04:39:58;;;;;;;2.70;1.00;;;14.60;99.90;;;;;;5091068;28;20666;-65
2022/06/27 04:42:30;;;;;;;5.07;1.00;;;14.50;99.90;;;;;;5091533;28;20724;-65
2022/06/27 04:44:58;;;;;;;3.50;1.13;;;14.40;99.90;;;;;;5075306;28;20207;-65
2022/06/27 04:47:37;;;;;;;0.80;0.80;;;14.40;99.90;;;;;;5095345;28;20579;-65
2022/06/27 04:50:08;;;;;;;3.20;1.50;;;14.40;99.90;;;;;;5095364;28;20269;-64
2022/06/27 04:52:37;;;;;;;2.77;1.20;;;14.40;99.90;;;;;;5094913;28;20231;-64
2022/06/27 04:55:10;;;;;;;2.00;0.90;;;14.30;99.90;;;;;;5095203;28;20183;-65
2022/06/27 04:57:40;;;;;;;1.87;1.10;;;14.20;99.90;;;;;;5094920;28;20186;-64
2022/06/27 05:00:13;;;;;;;1.00;0.90;;;14.20;99.90;;;;;;5095100;28;20190;-65
2022/06/27 05:02:41;;;;;;;4.77;1.13;;;14.10;99.90;;;;;;5095264;28;20194;-65
2022/06/27 05:05:10;;;;;;;3.23;1.00;;;14.10;99.90;;;;;;5095063;28;20209;-65
2022/06/27 05:07:38;;;;;;;2.70;1.20;;;14.10;99.90;;;;;;5095123;28;20190;-66
2022/06/27 05:10:08;;;;;;;3.30;1.20;;;14.40;99.90;;;;;;5095141;28;20175;-65
2022/06/27 05:12:35;;;;;;;1.30;1.07;;;14.50;99.90;;;;;;5094729;28;20706;-65
2022/06/27 05:15:03;;;;;;;2.13;1.13;;;14.40;99.90;;;;;;5076737;28;20646;-65
2022/06/27 05:17:32;;;;;;;2.93;1.40;;;14.30;99.90;;;;;;5094811;28;20186;-64
2022/06/27 05:20:02;;;;;;;2.37;1.40;;;14.30;99.90;;;;;;5094750;28;20189;-64
2022/06/27 05:22:30;;;;;;;2.60;1.30;;;14.40;99.90;;;;;;5094649;28;20641;-64
2022/06/27 05:24:58;;;;;;;1.37;0.93;;;14.40;99.90;;;;;;5094738;28;20616;-65
2022/06/27 05:27:27;;;;;;;2.60;1.40;;;14.60;99.90;;;;;;5094624;28;20619;-64
2022/06/27 05:29:55;;;;;;;2.40;1.20;;;14.70;99.90;;;;;;5094494;28;20664;-65
2022/06/27 05:32:22;;;;;;;3.30;1.20;;;14.80;99.90;;;;;;5094306;28;20913;-65
2022/06/27 05:34:49;;;;;;;1.70;1.07;;;14.60;99.90;;;;;;5094265;28;20646;-65
2022/06/27 05:37:17;;;;;;;2.20;1.20;;;14.40;99.90;;;;;;5094485;28;20203;-64
2022/06/27 05:39:46;;;;;;;3.23;1.40;;;14.20;99.90;;;;;;5094356;28;20592;-65
2022/06/27 05:42:13;;;;;;;3.50;1.10;;;14.10;99.90;;;;;;5075588;28;20645;-65
2022/06/27 05:44:41;;;;;;;2.77;1.10;;;13.90;99.90;;;;;;5094211;28;20207;-65
2022/06/27 05:47:09;;;;;;;3.53;1.20;;;13.80;99.90;;;;;;5094122;28;20194;-65
2022/06/27 05:49:39;;;;;;;5.07;2.00;;;13.80;99.90;;;;;;5094212;28;20178;-65
2022/06/27 05:52:06;;;;;;;2.83;1.00;;;13.80;99.90;;;;;;5093955;28;20672;-65
2022/06/27 05:54:35;;;;;;;5.37;1.83;;;13.80;99.90;;;;;;5094307;28;20190;-65
2022/06/27 05:57:04;;;;;;;3.40;1.23;;;13.80;99.90;;;;;;5091996;28;20264;-65
2022/06/27 05:59:31;;;;;;;5.37;1.20;;;13.70;99.90;;;;;;5094188;28;20181;-65
2022/06/27 06:02:00;;;;;;;4.60;1.40;;;13.70;99.90;;;;;;5093717;28;20191;-65
2022/06/27 06:04:27;;;;;;;2.57;1.20;;;13.60;99.90;;;;;;5094110;28;20538;-65
2022/06/27 06:06:55;;;;;;;1.93;1.30;;;13.40;99.90;;;;;;5093762;28;20682;-65
2022/06/27 06:09:22;;;;;;;4.63;1.40;;;13.50;99.90;;;;;;5093802;28;20201;-65
2022/06/27 06:11:53;;;;;;;2.83;1.40;;;13.40;99.90;;;;;;5093520;28;20177;-65
2022/06/27 06:14:21;;;;;;;2.07;1.10;;;13.40;99.90;;;;;;5094317;28;20634;-64
2022/06/27 06:16:52;;;;;;;2.50;1.20;;;13.40;99.90;;;;;;5093866;28;20222;-64
2022/06/27 06:19:20;;;;;;;3.20;1.30;;;13.20;99.90;;;;;;5094079;28;20176;-65
2022/06/27 06:21:47;;;;;;;2.87;1.40;;;13.20;99.90;;;;;;5093622;28;20650;-65
2022/06/27 06:24:15;;;;;;;3.83;1.57;;;13.20;99.90;;;;;;5092961;28;20224;-65
2022/06/27 06:26:45;;;;;;;4.80;1.43;;;13.10;99.90;;;;;;5093284;28;20301;-64
2022/06/27 06:29:14;;;;;;;5.13;1.60;;;13.10;99.90;;;;;;5093627;28;20189;-65
2022/06/27 06:31:43;;;;;;;6.00;1.80;;;13.00;99.90;;;;;;5093244;28;20191;-65
2022/06/27 06:34:12;;;;;;;4.53;1.10;;;12.80;99.90;;;;;;5092523;28;20194;-66
2022/06/27 06:36:41;;;;;;;5.07;1.40;;;12.80;99.90;;;;;;5091626;28;20670;-66
2022/06/27 06:39:08;;;;;;;7.70;1.50;;;12.70;99.90;;;;;;5075280;28;20643;-65
2022/06/27 06:41:36;;;;;;;4.43;1.17;;;12.70;99.90;;;;;;5093541;28;20179;-65
2022/06/27 06:44:07;;;;;;;3.53;1.50;;;12.50;99.90;;;;;;5093040;28;20179;-64
2022/06/27 06:46:34;;;;;;;2.83;1.50;;;12.40;99.90;;;;;;5091911;28;20222;-64
2022/06/27 06:49:04;;;;;;;4.17;1.10;;;12.40;99.90;;;;;;5093925;28;20184;-63
2022/06/27 06:51:35;;;;;;;4.30;1.80;;;12.40;99.90;;;;;;5092869;28;20191;-65
2022/06/27 06:54:04;;;;;;;4.63;1.77;;;12.30;99.90;;;;;;5093029;28;20187;-65
2022/06/27 06:56:33;;;;;;;3.80;1.77;;;12.30;99.90;;;;;;5092890;28;20714;-65
2022/06/27 06:59:01;;;;;;;4.90;1.77;;;12.20;99.90;;;;;;5093088;28;20164;-65
2022/06/27 07:01:33;;;;;;;4.70;2.60;;;12.20;99.90;;;;;;5092946;28;20191;-65
2022/06/27 07:04:01;;;;;;;7.40;3.43;;;12.20;99.90;;;;;;5092901;28;20236;-65
2022/06/27 07:06:29;;;;;;;5.77;3.53;;;12.10;99.90;;;;;;5092592;28;20209;-65
2022/06/27 07:08:58;;;;;;;4.30;2.10;;;12.00;99.90;;;;;;5092405;28;20559;-65
2022/06/27 07:11:27;;;;;;;3.87;1.63;;;11.80;99.90;;;;;;5092748;28;20172;-65
2022/06/27 07:13:57;;;;;;;3.67;2.17;;;11.80;99.90;;;;;;5092720;28;20551;-65
2022/06/27 07:16:26;;;;;;;3.87;1.90;;;11.80;99.90;;;;;;5074539;28;20183;-65
2022/06/27 07:18:55;;;;;;;4.77;2.77;;;11.80;99.90;;;;;;5092452;28;20274;-65
2022/06/27 07:21:24;;;;;;;4.47;2.37;;;11.90;99.90;;;;;;5092674;28;20173;-65
2022/06/27 07:23:52;;;;;;;5.20;3.00;;;11.70;99.90;;;;;;5092696;28;20187;-65
2022/06/27 07:26:21;;;;;;;5.70;1.70;;;11.80;99.90;;;;;;5092227;28;20254;-65
2022/06/27 07:28:51;;;;;;;2.13;1.40;;;11.90;99.90;;;;;;5092522;28;20195;-65
2022/06/27 07:31:18;;;;;;;7.73;1.90;;;11.80;99.90;;;;;;5092893;28;20265;-64
2022/06/27 07:33:48;;;;;;;3.97;1.47;;;11.90;99.90;;;;;;5092585;28;20197;-66
2022/06/27 07:36:17;;;;;;;4.13;2.17;;;11.80;99.90;;;;;;5092748;28;20284;-66
2022/06/27 07:38:47;;;;;;;4.80;1.53;;;11.80;99.90;;;;;;5092055;28;20187;-65
2022/06/27 07:41:19;;;;;;;4.53;1.43;;;11.70;99.90;;;;;;5092119;28;20180;-65
2022/06/27 07:43:48;;;;;;;2.77;1.63;;;11.70;99.90;;;;;;5092463;28;20263;-65
2022/06/27 07:46:17;;;;;;;4.93;1.60;;;11.60;99.90;;;;;;5091888;28;20580;-65
2022/06/27 07:48:46;;;;;;;3.90;1.50;;;11.60;99.90;;;;;;5091521;28;20187;-65
2022/06/27 07:51:19;;;;;;;2.90;1.47;;;11.60;99.90;;;;;;5089899;28;20187;-66
2022/06/27 07:53:47;;;;;;;4.60;1.77;;;11.60;99.90;;;;;;5074335;28;20184;-64
2022/06/27 07:56:15;;;;;;;4.47;1.80;;;11.60;99.90;;;;;;5092468;28;20179;-65
2022/06/27 07:58:43;;;;;;;5.23;1.70;;;11.70;99.90;;;;;;5092382;28;20183;-65
2022/06/27 08:01:15;;;;;;;3.97;1.87;;;11.60;99.90;;;;;;5092646;28;20666;-66
2022/06/27 08:03:44;;;;;;;4.43;2.33;;;11.60;99.90;;;;;;5092481;28;20790;-66
2022/06/27 08:06:18;;;;;;;7.33;2.47;;;11.40;99.90;;;;;;5074305;28;20596;-64
2022/06/27 08:08:48;;;;;;;5.90;3.27;;;11.50;99.90;;;;;;5092102;28;20186;-66
2022/06/27 08:11:20;;;;;;;8.13;4.00;;;11.40;99.90;;;;;;5092581;28;20187;-66
2022/06/27 08:13:49;;;;;;;4.97;2.70;;;11.40;99.90;;;;;;5092163;28;20209;-65
2022/06/27 08:16:18;;;;;;;4.80;2.50;;;11.40;99.90;;;;;;5092041;28;20207;-65
2022/06/27 08:18:47;;;;;;;4.93;2.07;;;11.40;99.90;;;;;;5092135;28;20196;-65
2022/06/27 08:21:17;;;;;;;5.03;1.97;;;11.50;99.90;;;;;;5096157;28;20683;-65
2022/06/27 08:23:45;;;;;;;5.90;2.03;;;11.40;99.90;;;;;;5096481;28;20222;-65
2022/06/27 08:26:13;;;;;;;2.30;1.40;;;11.50;99.90;;;;;;5095895;28;20234;-66
2022/06/27 08:28:43;;;;;;;2.17;1.40;;;11.40;99.90;;;;;;5095983;28;20186;-66
2022/06/27 08:31:12;;;;;;;3.13;1.50;;;11.30;99.90;;;;;;5095976;28;20198;-65
2022/06/27 08:33:43;;;;;;;1.57;1.40;;;11.40;99.90;;;;;;5093114;28;20184;-65
2022/06/27 08:36:12;;;;;;;1.70;1.37;;;11.20;99.90;;;;;;5075742;28;20192;-65
2022/06/27 08:38:42;;;;;;;4.30;1.50;;;11.20;99.90;;;;;;5075668;28;20176;-64
2022/06/27 08:41:11;;;;;;;3.83;1.33;;;11.20;99.90;;;;;;5079429;28;20266;-66
2022/06/27 08:43:40;;;;;;;2.23;1.27;;;11.10;99.90;;;;;;5095572;28;20313;-64
2022/06/27 08:46:09;;;;;;;4.43;1.60;;;11.00;99.90;;;;;;5095724;28;20226;-64
2022/06/27 08:48:41;;;;;;;3.60;1.43;;;11.10;99.90;;;;;;5095788;28;20199;-65
2022/06/27 08:51:09;;;;;;;4.77;1.47;;;11.00;99.90;;;;;;5095255;28;20349;-66
2022/06/27 08:53:38;;;;;;;3.23;1.30;;;11.10;99.90;;;;;;5095208;28;20186;-62
2022/06/27 08:56:10;;;;;;;3.30;1.57;;;11.10;99.90;;;;;;5091070;28;20188;-63
2022/06/27 08:58:38;;;;;;;2.53;1.17;;;11.20;99.90;;;;;;5075493;28;20188;-63
2022/06/27 09:01:06;;;;;;;2.93;1.43;;;11.20;99.90;;;;;;5094617;28;20189;-64
2022/06/27 09:03:34;;;;;;;3.87;1.67;;;11.10;99.90;;;;;;5083106;28;20653;-65
2022/06/27 09:06:04;;;;;;;2.40;1.10;;;11.00;99.90;;;;;;5064992;28;20222;-65
2022/06/27 09:09:06;;;;;;;3.97;1.90;;;11.00;99.90;;;;;;5091365;28;20213;-64
2022/06/27 09:11:39;;;;;;;15.03;6.60;;;11.00;99.90;;;;;;5085089;28;20179;-64
2022/06/27 09:14:28;;;;;;;4.17;2.60;;;11.00;99.90;;;;;;5084009;28;20172;-63
2022/06/27 09:17:04;;;;;;;2.40;1.53;;;11.00;99.90;;;;;;5085145;28;20562;-66
2022/06/27 09:19:51;;;;;;;1.40;1.30;;;11.00;99.90;;;;;;5086359;28;20203;-64
2022/06/27 09:22:21;;;;;;;4.30;2.13;;;11.00;99.90;;;;;;5069072;28;20222;-64
2022/06/27 09:25:22;;;;;;;5.37;1.33;;;11.10;99.90;;;;;;5083204;28;20206;-64
2022/06/27 09:27:52;;;;;;;5.20;1.53;;;11.10;99.90;;;;;;5085476;28;20282;-63
2022/06/27 09:30:22;;;;;;;3.43;1.60;;;11.00;99.90;;;;;;5089698;28;20187;-65
2022/06/27 09:32:54;;;;;;;5.93;1.60;;;11.00;99.90;;;;;;5094644;28;20680;-65
2022/06/27 09:35:36;;;;;;;2.63;1.57;;;10.90;99.90;;;;;;5076472;28;20219;-64
2022/06/27 09:38:07;;;;;;;8.03;1.63;;;10.80;99.90;;;;;;5094510;28;20191;-64
2022/06/27 09:40:36;;;;;;;4.43;1.40;;;11.00;99.90;;;;;;5094810;28;20617;-64
2022/06/27 09:43:05;;;;;;;1.90;1.47;;;10.90;99.90;;;;;;5094671;28;20704;-65
2022/06/27 09:45:33;;;;;;;2.10;1.30;;;10.90;99.90;;;;;;5076285;28;20604;-65
2022/06/27 09:48:06;;;;;;;2.70;1.57;;;10.90;99.90;;;;;;5091334;28;20179;-65
2022/06/27 09:50:39;;;;;;;1.47;1.33;;;10.90;99.90;;;;;;5083097;28;20225;-65
2022/06/27 09:53:07;;;;;;;4.73;1.50;;;11.00;99.90;;;;;;5088595;28;20687;-65
2022/06/27 09:55:36;;;;;;;4.67;1.40;;;11.10;99.90;;;;;;5076588;28;20199;-64
2022/06/27 09:58:06;;;;;;;4.00;1.77;;;11.10;99.90;;;;;;5094089;28;20297;-64
2022/06/27 10:00:34;;;;;;;3.17;1.33;;;11.20;99.90;;;;;;5069862;28;20579;-64
2022/06/27 10:03:02;;;;;;;3.90;1.40;;;11.20;99.90;;;;;;5091346;28;20644;-64
2022/06/27 10:05:29;;;;;;;3.67;1.87;;;11.30;99.90;;;;;;5094698;28;20691;-66
2022/06/27 10:07:58;;;;;;;4.00;1.57;;;11.20;99.90;;;;;;5094859;28;20173;-65
2022/06/27 10:10:32;;;;;;;3.73;1.70;;;11.20;99.90;;;;;;5095288;28;20181;-64
2022/06/27 10:13:02;;;;;;;3.43;1.67;;;11.20;99.90;;;;;;5076768;28;20550;-64
2022/06/27 10:15:39;;;;;;;4.77;1.60;;;11.10;99.90;;;;;;5076720;28;20233;-65
2022/06/27 10:18:06;;;;;;;5.03;2.13;;;11.10;99.90;;;;;;5078144;28;20678;-66
2022/06/27 10:20:41;;;;;;;10.23;3.87;;;11.00;99.90;;;;;;5095411;28;20209;-66
2022/06/27 10:23:14;;;;;;;5.23;3.07;;;11.00;99.90;;;;;;5095151;28;20186;-66
2022/06/27 10:25:44;;;;;;;4.47;2.80;;;10.90;99.90;;;;;;5094746;28;20218;-65
2022/06/27 10:28:14;;;;;;;2.57;1.43;;;10.90;99.90;;;;;;5094391;28;20314;-66
2022/06/27 10:30:57;;;;;;;1.90;1.40;;;10.80;99.90;;;;;;5095060;28;20262;-66
2022/06/27 10:33:24;;;;;;;3.97;1.70;;;10.70;99.90;;;;;;5094922;28;20179;-65
2022/06/27 10:36:30;;;;;;;3.30;1.27;;;10.70;99.90;;;;;;5076511;28;20551;-66
2022/06/27 10:38:54;;;;;;;2.73;1.40;;;10.80;99.90;;;;;;5091088;28;20195;-66
2022/06/27 10:41:22;;;;;;;3.87;1.93;;;10.80;99.90;;;;;;5088923;28;20643;-65
2022/06/27 10:43:57;;;;;;;3.47;1.47;;;10.80;99.90;;;;;;5089072;28;20665;-64
2022/06/27 10:46:24;;;;;;;2.23;1.50;;;10.80;99.90;;;;;;5083755;28;20238;-65
2022/06/27 10:48:59;;;;;;;2.07;1.50;;;10.80;99.90;;;;;;5089573;28;20187;-66
2022/06/27 10:51:31;;;;;;;3.20;1.40;;;10.90;99.90;;;;;;5092690;28;20197;-65
2022/06/27 10:54:08;;;;;;;2.53;1.63;;;10.90;99.90;;;;;;5094276;28;20175;-65
2022/06/27 10:56:41;;;;;;;2.93;1.30;;;10.90;99.90;;;;;;5094287;28;20645;-66
2022/06/27 10:59:14;;;;;;;1.97;1.37;;;10.80;99.90;;;;;;5094749;28;20176;-66
2022/06/27 11:02:02;;;;;;;5.73;1.60;;;10.80;99.90;;;;;;5094369;28;20196;-66
2022/06/27 11:04:38;;;;;;;4.33;1.57;;;10.70;99.90;;;;;;5089337;28;20184;-66
2022/06/27 11:07:08;;;;;;;2.37;1.30;;;10.60;99.90;;;;;;5078764;28;20183;-65
2022/06/27 11:09:39;;;;;;;5.23;1.77;;;10.60;99.90;;;;;;5093598;28;20180;-66
2022/06/27 11:12:07;;;;;;;2.87;1.50;;;10.60;99.90;;;;;;5093870;28;20216;-65
2022/06/27 11:15:04;;;;;;;5.80;1.67;;;10.50;99.90;;;;;;5093300;28;20182;-66
2022/06/27 11:17:35;;;;;;;4.77;1.93;;;10.40;99.90;;;;;;5060878;28;20190;-65
2022/06/27 11:20:25;;;;;;;2.80;1.53;;;10.40;99.90;;;;;;5092331;28;20209;-66
2022/06/27 11:23:00;;;;;;;4.27;1.60;;;10.30;99.90;;;;;;5094082;28;20569;-65
2022/06/27 11:25:29;;;;;;;3.83;1.40;;;10.20;99.90;;;;;;5093998;28;20199;-65
2022/06/27 11:31:57;;;;;;;2.17;1.20;;;10.10;99.90;;;;;;5093734;28;20269;-65
2022/06/27 11:33:34;;;;;;;5.07;1.77;;;10.00;99.90;;;;;;5074008;28;20185;-65
2022/06/27 11:36:01;;;;;;;2.80;1.40;;;9.80;99.90;;;;;;5073692;28;20187;-65
2022/06/27 11:38:49;;;;;;;4.13;1.57;;;9.80;99.90;;;;;;5091527;28;20189;-66
2022/06/27 11:41:26;;;;;;;3.47;1.53;;;9.70;99.90;;;;;;5093705;28;20182;-64
2022/06/27 11:44:02;;;;;;;2.70;1.57;;;9.70;99.90;;;;;;5093775;28;20173;-66
2022/06/27 11:46:37;;;;;;;4.20;1.50;;;9.70;99.90;;;;;;5090962;28;20305;-65
2022/06/27 11:49:09;;;;;;;2.40;1.50;;;9.70;99.90;;;;;;5087177;28;20175;-65
2022/06/27 11:51:40;;;;;;;4.07;1.83;;;9.70;99.90;;;;;;5093245;28;20229;-65
2022/06/27 11:54:16;;;;;;;2.80;1.70;;;9.60;99.90;;;;;;5093517;28;20232;-66
2022/06/27 11:56:46;;;;;;;4.37;1.67;;;9.50;99.90;;;;;;5093402;28;20189;-66
2022/06/27 11:59:15;;;;;;;3.13;1.63;;;9.40;99.90;;;;;;5087187;28;20268;-65
2022/06/27 12:02:03;;;;;;;3.97;2.00;;;9.30;99.90;;;;;;5075581;28;20539;-66
2022/06/27 12:04:34;;;;;;;3.67;1.63;;;9.20;99.90;;;;;;5074522;28;20653;-66
2022/06/27 12:07:10;;;;;;;9.17;2.43;;;9.40;99.90;;;;;;5093030;28;20186;-66
2022/06/27 12:09:53;;;;;;;3.63;1.53;;;9.50;99.90;;;;;;5086912;28;20182;-65
2022/06/27 12:12:29;;;;;;;6.13;2.13;;;9.60;99.90;;;;;;5085389;28;20184;-66
2022/06/27 12:14:57;;;;;;;4.37;1.63;;;9.70;99.90;;;;;;5081763;28;20178;-65
2022/06/27 12:17:37;;;;;;;3.27;1.63;;;9.70;99.90;;;;;;5081682;28;20186;-65
2022/06/27 12:20:08;;;;;;;4.43;1.50;;;9.70;99.90;;;;;;5087115;28;20262;-65
2022/06/27 12:22:35;;;;;;;4.20;1.70;;;9.80;99.90;;;;;;5093203;28;20193;-65
2022/06/27 12:25:03;;;;;;;4.20;1.43;;;9.70;99.90;;;;;;5090851;28;20273;-65
2022/06/27 12:27:30;;;;;;;5.90;1.50;;;9.70;99.90;;;;;;5083131;28;20611;-65
2022/06/27 12:29:58;;;;;;;4.80;1.33;;;9.70;99.90;;;;;;5072974;28;20225;-65
2022/06/27 12:32:25;;;;;;;2.00;1.50;;;9.70;99.90;;;;;;5072980;28;20191;-64
2022/06/27 12:34:53;;;;;;;8.27;2.17;;;9.70;99.90;;;;;;5073075;28;20177;-65
2022/06/27 12:37:20;;;;;;;5.47;1.73;;;9.70;99.90;;;;;;5078531;28;20233;-65
2022/06/27 12:39:47;;;;;;;4.17;1.47;;;9.60;99.90;;;;;;5093346;28;20182;-66
2022/06/27 12:42:14;;;;;;;4.10;1.50;;;9.60;99.90;;;;;;5084535;28;20213;-64
2022/06/27 12:44:42;;;;;;;7.00;1.63;;;9.60;99.90;;;;;;5086550;28;20330;-66
2022/06/27 12:47:09;;;;;;;4.83;1.50;;;9.60;99.90;;;;;;5081418;28;20185;-65
2022/06/27 12:49:37;;;;;;;3.93;1.93;;;9.60;99.90;;;;;;5082477;28;20254;-65
2022/06/27 12:52:04;;;;;;;4.83;1.83;;;9.60;99.90;;;;;;5085864;28;20307;-65
2022/06/27 12:54:32;;;;;;;6.63;1.40;;;9.50;99.90;;;;;;5085817;28;20187;-65
2022/06/27 12:57:00;;;;;;;2.67;1.47;;;9.50;99.90;;;;;;5081638;28;20626;-64
2022/06/27 12:59:28;;;;;;;5.10;1.60;;;9.50;99.90;;;;;;5081294;28;20181;-65
2022/06/27 13:01:55;;;;;;;3.57;1.70;;;9.50;99.90;;;;;;5086683;28;20183;-65
2022/06/27 13:04:22;;;;;;;3.70;1.30;;;9.50;99.90;;;;;;5085016;28;20582;-66
2022/06/27 13:06:50;;;;;;;4.47;1.30;;;9.50;99.90;;;;;;5088026;28;20211;-66